createdAt,value
2023-02-09T00:02:15.184Z,26.65
2023-02-09T00:04:41.931Z,27.55
2023-02-09T00:07:08.613Z,30.00
2023-02-09T00:09:35.223Z,29.10
2023-02-09T00:12:20.775Z,29.70
2023-02-09T00:14:47.452Z,32.05
2023-02-09T00:17:14.163Z,29.55
2023-02-09T00:19:40.856Z,28.27
2023-02-09T00:22:07.631Z,28.50
2023-02-09T00:24:34.313Z,28.40
2023-02-09T00:27:01.027Z,28.02
2023-02-09T00:29:28.030Z,30.65
2023-02-09T00:31:54.889Z,29.48
2023-02-09T00:34:21.600Z,32.08
2023-02-09T00:36:48.403Z,30.88
2023-02-09T00:39:15.222Z,30.55
2023-02-09T00:42:00.511Z,30.30
2023-02-09T00:44:27.160Z,27.58
2023-02-09T00:46:54.124Z,31.02
2023-02-09T00:49:21.127Z,28.73
2023-02-09T00:51:47.953Z,28.85
2023-02-09T00:54:14.822Z,29.05
2023-02-09T00:56:41.460Z,29.42
2023-02-09T00:59:08.125Z,29.33
2023-02-09T01:01:35.068Z,28.35
2023-02-09T01:04:02.019Z,28.95
2023-02-09T01:06:28.971Z,30.02
2023-02-09T01:08:55.635Z,31.00
2023-02-09T01:11:27.247Z,29.02
2023-02-09T01:13:56.490Z,28.35
2023-02-09T01:16:23.439Z,29.90
2023-02-09T01:18:50.132Z,27.17
2023-02-09T01:21:20.224Z,33.60
2023-02-09T01:23:47.753Z,27.65
2023-02-09T01:26:15.552Z,29.05
2023-02-09T01:28:42.513Z,25.40
2023-02-09T01:31:30.801Z,30.98
2023-02-09T01:33:59.441Z,30.80
2023-02-09T01:36:26.515Z,30.35
2023-02-09T01:38:58.972Z,35.92
2023-02-09T01:41:26.378Z,27.67
2023-02-09T01:44:05.500Z,28.77
2023-02-09T01:46:34.907Z,26.95
2023-02-09T01:49:16.708Z,31.48
2023-02-09T01:52:04.739Z,30.05
2023-02-09T01:54:39.932Z,32.83
2023-02-09T01:57:17.843Z,27.65
2023-02-09T01:59:47.680Z,28.88
2023-02-09T02:02:14.733Z,26.88
2023-02-09T02:04:42.772Z,30.80
2023-02-09T02:07:25.590Z,29.33
2023-02-09T02:09:52.603Z,27.20
2023-02-09T02:12:19.356Z,27.80
2023-02-09T02:14:46.306Z,30.98
2023-02-09T02:18:04.424Z,30.98
2023-02-09T02:21:35.497Z,26.75
2023-02-09T02:24:35.599Z,29.63
2023-02-09T02:27:27.605Z,30.15
2023-02-09T02:33:47.376Z,27.75
2023-02-09T02:36:43.427Z,28.45
2023-02-09T02:39:23.016Z,29.45
2023-02-09T02:42:18.340Z,31.67
2023-02-09T02:45:09.700Z,27.95
2023-02-09T02:47:38.416Z,29.45
2023-02-09T02:50:14.738Z,29.95
2023-02-09T02:52:44.435Z,28.88
2023-02-09T02:55:15.099Z,37.42
2023-02-09T02:57:44.964Z,26.83
2023-02-09T03:00:19.915Z,28.70
2023-02-09T03:02:50.680Z,25.10
2023-02-09T03:05:18.263Z,30.85
2023-02-09T03:07:45.300Z,27.77
2023-02-09T03:10:35.518Z,28.85
2023-02-09T03:13:33.522Z,27.20
2023-02-09T03:16:27.332Z,28.40
2023-02-09T03:19:08.696Z,29.65
2023-02-09T03:22:05.230Z,26.70
2023-02-09T03:24:37.673Z,27.08
2023-02-09T03:27:23.205Z,27.95
2023-02-09T03:29:54.587Z,25.25
2023-02-09T03:32:23.343Z,29.02
2023-02-09T03:34:50.329Z,31.17
2023-02-09T03:37:17.759Z,26.20
2023-02-09T03:39:44.520Z,29.77
2023-02-09T03:42:11.510Z,28.58
2023-02-09T03:44:38.131Z,28.67
2023-02-09T03:47:07.383Z,25.75
2023-02-09T03:49:39.499Z,25.60
2023-02-09T03:52:08.549Z,24.15
2023-02-09T03:54:35.847Z,27.73
2023-02-09T03:57:03.223Z,24.85
2023-02-09T03:59:30.650Z,26.05
2023-02-09T04:01:58.717Z,23.90
2023-02-09T04:04:26.065Z,30.73
2023-02-09T04:06:53.271Z,25.83
2023-02-09T04:09:20.391Z,30.40
2023-02-09T04:11:47.777Z,29.40
2023-02-09T04:14:15.151Z,26.58
2023-02-09T04:16:42.088Z,28.60
2023-02-09T04:19:09.861Z,31.27
2023-02-09T04:21:37.812Z,29.42
2023-02-09T04:24:05.719Z,28.88
2023-02-09T04:26:32.821Z,29.05
2023-02-09T04:28:59.822Z,26.63
2023-02-09T04:31:27.032Z,26.88
2023-02-09T04:33:54.050Z,28.52
2023-02-09T04:36:23.561Z,23.90
2023-02-09T04:38:50.830Z,27.00
2023-02-09T04:41:17.989Z,30.98
2023-02-09T04:43:46.383Z,27.20
2023-02-09T04:46:17.994Z,28.50
2023-02-09T04:48:45.335Z,25.33
2023-02-09T04:51:12.271Z,29.98
2023-02-09T04:53:39.215Z,29.35
2023-02-09T04:56:06.646Z,25.90
2023-02-09T04:58:52.161Z,29.55
2023-02-09T05:01:22.125Z,31.85
2023-02-09T05:03:49.070Z,29.20
2023-02-09T05:06:15.791Z,35.20
2023-02-09T05:08:42.554Z,38.95
2023-02-09T05:11:09.486Z,28.67
2023-02-09T05:13:36.334Z,28.20
2023-02-09T05:16:12.531Z,29.33
2023-02-09T05:18:39.410Z,28.23
2023-02-09T05:21:06.597Z,29.73
2023-02-09T05:23:33.468Z,28.65
2023-02-09T05:26:00.513Z,29.05
2023-02-09T05:28:27.360Z,30.23
2023-02-09T05:30:54.535Z,28.33
2023-02-09T05:33:22.357Z,25.77
2023-02-09T05:35:49.348Z,26.77
2023-02-09T05:38:16.718Z,28.73
2023-02-09T05:40:45.140Z,26.80
2023-02-09T05:43:12.590Z,29.85
2023-02-09T05:45:39.341Z,33.08
2023-02-09T05:48:06.692Z,28.33
2023-02-09T05:50:33.638Z,26.35
2023-02-09T05:53:00.409Z,29.48
2023-02-09T05:55:27.872Z,27.35
2023-02-09T05:57:54.623Z,27.55
2023-02-09T06:00:22.172Z,28.95
2023-02-09T06:02:49.089Z,26.88
2023-02-09T06:05:16.015Z,26.33
2023-02-09T06:07:43.062Z,28.42
2023-02-09T06:10:10.227Z,30.50
2023-02-09T06:12:37.083Z,27.27
2023-02-09T06:15:04.631Z,29.55
2023-02-09T06:17:31.356Z,25.40
2023-02-09T06:19:58.198Z,29.40
2023-02-09T06:22:24.963Z,29.73
2023-02-09T06:24:52.026Z,164.07
2023-02-09T06:27:18.967Z,61.70
2023-02-09T06:29:45.705Z,42.45
2023-02-09T06:32:12.609Z,31.15
2023-02-09T06:34:39.694Z,29.88
2023-02-09T06:37:06.406Z,28.55
2023-02-09T06:39:33.207Z,28.98
2023-02-09T06:42:00.111Z,32.10
2023-02-09T06:44:27.207Z,29.38
2023-02-09T06:46:54.113Z,30.05
2023-02-09T06:49:24.243Z,32.95
2023-02-09T06:51:51.675Z,29.50
2023-02-09T06:54:18.633Z,30.35
2023-02-09T06:56:45.356Z,30.02
2023-02-09T06:59:13.129Z,36.13
2023-02-09T07:01:47.549Z,33.13
2023-02-09T07:04:14.363Z,33.20
2023-02-09T07:06:41.444Z,33.60
2023-02-09T07:09:08.285Z,57.67
2023-02-09T07:11:35.185Z,41.92
2023-02-09T07:14:02.170Z,37.92
2023-02-09T07:16:29.034Z,44.20
2023-02-09T07:18:56.216Z,47.58
2023-02-09T07:21:23.048Z,41.83
2023-02-09T07:23:50.303Z,41.17
2023-02-09T07:26:18.595Z,42.33
2023-02-09T07:28:45.831Z,43.25
2023-02-09T07:31:14.269Z,49.42
2023-02-09T07:33:41.351Z,119.35
2023-02-09T07:36:10.637Z,295.92
2023-02-09T07:38:38.716Z,104.13
2023-02-09T07:41:07.532Z,98.75
2023-02-09T07:43:34.736Z,93.32
2023-02-09T07:46:05.208Z,110.32
2023-02-09T07:48:32.715Z,73.07
2023-02-09T07:51:00.259Z,51.97
2023-02-09T07:53:28.115Z,50.10
2023-02-09T07:55:55.302Z,51.35
2023-02-09T07:58:24.021Z,42.72
2023-02-09T08:00:52.155Z,47.67
2023-02-09T08:03:21.396Z,52.17
2023-02-09T08:05:53.890Z,48.10
2023-02-09T08:08:20.970Z,43.22
2023-02-09T08:10:48.094Z,42.90
2023-02-09T08:15:18.692Z,99.07
2023-02-09T08:17:45.639Z,107.07
2023-02-09T08:20:18.330Z,105.97
2023-02-09T08:22:48.256Z,101.82
2023-02-09T08:25:17.087Z,107.85
2023-02-09T08:27:44.461Z,78.00
2023-02-09T08:30:13.163Z,54.15
2023-02-09T08:32:40.144Z,44.38
2023-02-09T08:35:07.350Z,38.58
2023-02-09T08:37:34.559Z,36.97
2023-02-09T08:40:01.337Z,37.60
2023-02-09T08:42:29.037Z,35.65
2023-02-09T08:44:55.746Z,33.50
2023-02-09T08:47:23.067Z,28.65
2023-02-09T08:49:51.444Z,29.92
2023-02-09T08:52:18.978Z,37.80
2023-02-09T08:54:45.993Z,30.50
2023-02-09T08:57:12.965Z,33.28
2023-02-09T08:59:40.270Z,36.58
2023-02-09T09:02:07.052Z,38.75
2023-02-09T09:04:34.237Z,29.50
2023-02-09T09:07:00.983Z,26.75
2023-02-09T09:09:27.910Z,28.27
2023-02-09T09:11:54.665Z,27.42
2023-02-09T09:14:21.413Z,27.45
2023-02-09T09:16:48.360Z,26.73
2023-02-09T09:19:15.581Z,31.88
2023-02-09T09:21:42.359Z,28.48
2023-02-09T09:24:09.235Z,27.70
2023-02-09T09:26:36.219Z,28.63
2023-02-09T09:29:03.318Z,29.35
2023-02-09T09:31:31.309Z,32.95
2023-02-09T09:33:58.071Z,29.40
2023-02-09T09:36:25.110Z,58.47
2023-02-09T09:38:51.840Z,38.20
2023-02-09T09:41:29.470Z,30.50
2023-02-09T09:43:56.626Z,25.30
2023-02-09T09:46:33.754Z,43.30
2023-02-09T09:49:01.200Z,39.72
2023-02-09T09:51:39.438Z,31.67
2023-02-09T09:54:13.412Z,24.50
2023-02-09T09:56:41.846Z,24.42
2023-02-09T09:59:19.634Z,23.38
2023-02-09T10:01:48.044Z,23.40
2023-02-09T10:04:16.131Z,23.48
2023-02-09T10:06:46.259Z,21.65
2023-02-09T10:09:54.224Z,19.17
2023-02-09T10:12:51.528Z,20.73
2023-02-09T10:15:31.576Z,18.17
2023-02-09T10:17:59.199Z,21.15
2023-02-09T10:20:44.851Z,23.83
2023-02-09T10:23:39.023Z,25.85
2023-02-09T10:26:09.002Z,21.57
2023-02-09T10:28:45.541Z,19.52
2023-02-09T10:31:35.551Z,20.60
2023-02-09T10:34:13.459Z,19.40
2023-02-09T10:36:48.911Z,20.45
2023-02-09T10:39:19.706Z,20.17
2023-02-09T10:41:52.391Z,21.05
2023-02-09T10:44:26.326Z,19.45
2023-02-09T10:49:37.441Z,21.27
2023-02-09T10:52:19.570Z,20.60
2023-02-09T10:54:49.293Z,21.08
2023-02-09T10:57:29.035Z,20.40
2023-02-09T11:00:01.741Z,21.35
2023-02-09T11:02:35.386Z,20.83
2023-02-09T11:05:03.093Z,21.85
2023-02-09T11:07:34.540Z,21.90
2023-02-09T11:10:02.635Z,22.10
2023-02-09T11:12:31.157Z,20.17
2023-02-09T11:15:01.886Z,24.27
2023-02-09T11:17:40.308Z,17.83
2023-02-09T11:20:29.049Z,20.40
2023-02-09T11:23:31.006Z,21.25
2023-02-09T11:26:01.477Z,19.38
2023-02-09T11:28:52.780Z,20.60
2023-02-09T11:31:50.326Z,23.98
2023-02-09T11:34:35.844Z,20.25
2023-02-09T11:37:14.260Z,18.52
2023-02-09T11:40:05.050Z,17.08
2023-02-09T11:42:46.344Z,18.80
2023-02-09T11:45:30.030Z,19.35
2023-02-09T11:48:13.466Z,19.45
2023-02-09T11:50:59.431Z,19.27
2023-02-09T11:53:39.801Z,21.73
2023-02-09T11:56:09.473Z,21.98
2023-02-09T11:58:58.439Z,26.35
2023-02-09T12:02:00.424Z,23.83
2023-02-09T12:04:45.687Z,20.85
2023-02-09T12:07:20.445Z,21.30
2023-02-09T12:10:20.371Z,21.63
2023-02-09T12:13:15.689Z,18.20
2023-02-09T12:15:46.165Z,21.73
2023-02-09T12:18:16.031Z,19.58
2023-02-09T12:20:57.461Z,17.13
2023-02-09T12:23:43.637Z,17.45
2023-02-09T12:26:33.381Z,14.52
2023-02-09T12:29:29.345Z,19.02
2023-02-09T12:32:30.946Z,26.35
2023-02-09T12:35:22.999Z,14.45
2023-02-09T12:38:13.358Z,16.85
2023-02-09T12:40:40.350Z,16.20
2023-02-09T12:43:28.661Z,15.23
2023-02-09T12:46:33.269Z,18.38
2023-02-09T12:49:33.004Z,18.48
2023-02-09T12:52:19.974Z,16.27
2023-02-09T12:54:57.419Z,16.98
2023-02-09T12:57:49.856Z,16.77
2023-02-09T13:00:41.002Z,16.90
2023-02-09T13:03:13.317Z,18.20
2023-02-09T13:05:42.236Z,19.23
2023-02-09T13:08:18.924Z,18.10
2023-02-09T13:11:02.712Z,15.32
2023-02-09T13:13:51.741Z,15.17
2023-02-09T13:16:21.233Z,16.45
2023-02-09T13:19:12.185Z,16.40
2023-02-09T13:21:47.563Z,16.50
2023-02-09T13:24:22.781Z,15.20
2023-02-09T13:26:54.655Z,15.27
2023-02-09T13:29:26.637Z,16.55
2023-02-09T13:32:17.238Z,19.27
2023-02-09T13:35:25.635Z,18.55
2023-02-09T13:37:57.208Z,14.25
2023-02-09T13:40:29.618Z,19.73
2023-02-09T13:43:22.239Z,13.98
2023-02-09T13:45:50.930Z,14.90
2023-02-09T13:48:32.695Z,41.75
2023-02-09T13:51:01.902Z,19.02
2023-02-09T13:53:30.782Z,16.02
2023-02-09T13:56:00.925Z,18.60
2023-02-09T13:58:30.652Z,17.63
2023-02-09T14:01:00.258Z,15.43
2023-02-09T14:03:29.332Z,16.50
2023-02-09T14:06:15.386Z,17.60
2023-02-09T14:08:42.636Z,17.33
2023-02-09T14:11:47.514Z,18.70
2023-02-09T14:15:00.171Z,26.83
2023-02-09T14:17:32.446Z,26.95
2023-02-09T14:20:00.212Z,17.98
2023-02-09T14:22:33.334Z,21.63
2023-02-09T14:25:00.702Z,21.38
2023-02-09T14:27:28.677Z,20.63
2023-02-09T14:29:55.874Z,26.55
2023-02-09T14:32:37.005Z,21.52
2023-02-09T14:35:29.276Z,16.33
2023-02-09T14:38:01.585Z,21.70
2023-02-09T14:40:28.576Z,22.33
2023-02-09T14:43:25.166Z,21.45
2023-02-09T14:46:00.433Z,20.65
2023-02-09T14:48:29.092Z,21.20
2023-02-09T14:51:01.750Z,20.50
2023-02-09T14:53:31.512Z,17.65
2023-02-09T14:55:58.985Z,22.70
2023-02-09T14:58:27.053Z,17.73
2023-02-09T15:00:56.147Z,19.27
2023-02-09T15:03:22.877Z,26.27
2023-02-09T15:05:51.798Z,23.70
2023-02-09T15:08:22.169Z,24.42
2023-02-09T15:10:51.275Z,27.17
2023-02-09T15:13:18.081Z,21.65
2023-02-09T15:15:45.540Z,22.35
2023-02-09T15:18:20.658Z,21.42
2023-02-09T15:20:48.069Z,20.75
2023-02-09T15:23:15.007Z,19.88
2023-02-09T15:25:42.479Z,19.73
2023-02-09T15:28:30.292Z,23.08
2023-02-09T15:30:58.719Z,23.58
2023-02-09T15:33:26.377Z,24.70
2023-02-09T15:35:53.390Z,32.78
2023-02-09T15:38:20.516Z,28.60
2023-02-09T15:41:07.894Z,25.40
2023-02-09T15:43:53.798Z,22.50
2023-02-09T15:46:39.184Z,21.50
2023-02-09T15:49:06.072Z,27.15
2023-02-09T15:51:34.483Z,28.25
2023-02-09T15:54:03.333Z,22.55
2023-02-09T15:56:30.244Z,24.17
2023-02-09T15:59:03.872Z,21.92
2023-02-09T16:01:34.697Z,20.27
2023-02-09T16:04:13.406Z,20.98
2023-02-09T16:06:43.822Z,20.00
2023-02-09T16:09:17.769Z,22.63
2023-02-09T16:11:44.513Z,26.92
2023-02-09T16:14:17.087Z,25.15
2023-02-09T16:16:45.954Z,24.52
2023-02-09T16:19:13.574Z,24.10
2023-02-09T16:21:42.665Z,22.02
2023-02-09T16:24:17.830Z,22.70
2023-02-09T16:26:44.801Z,27.52
2023-02-09T16:29:11.737Z,26.00
2023-02-09T16:31:38.518Z,22.15
2023-02-09T16:34:05.199Z,27.75
2023-02-09T16:36:31.974Z,27.02
2023-02-09T16:38:58.570Z,31.45
2023-02-09T16:41:44.317Z,28.17
2023-02-09T16:44:30.632Z,28.45
2023-02-09T16:46:59.169Z,34.53
2023-02-09T16:49:43.267Z,37.78
2023-02-09T16:52:16.305Z,35.70
2023-02-09T16:54:48.557Z,31.15
2023-02-09T16:57:18.181Z,34.33
2023-02-09T16:59:45.089Z,55.65
2023-02-09T17:02:37.368Z,36.60
2023-02-09T17:05:17.234Z,41.17
2023-02-09T17:07:53.991Z,35.90
2023-02-09T17:10:25.449Z,35.42
2023-02-09T17:12:53.749Z,35.97
2023-02-09T17:15:29.389Z,33.75
2023-02-09T17:18:02.113Z,33.58
2023-02-09T17:20:34.554Z,35.75
2023-02-09T17:23:01.193Z,37.78
2023-02-09T17:25:27.952Z,55.15
2023-02-09T17:27:54.862Z,41.33
2023-02-09T17:30:22.533Z,34.05
2023-02-09T17:33:04.247Z,30.90
2023-02-09T17:36:03.546Z,36.38
2023-02-09T17:38:29.727Z,28.80
2023-02-09T17:40:57.845Z,29.13
2023-02-09T17:43:25.052Z,33.90
2023-02-09T17:45:52.488Z,41.10
2023-02-09T17:48:21.017Z,34.38
2023-02-09T17:50:49.692Z,36.55
2023-02-09T17:53:25.495Z,35.53
2023-02-09T17:55:54.373Z,34.65
2023-02-09T17:58:21.079Z,32.17
2023-02-09T18:00:48.227Z,34.35
2023-02-09T18:03:26.091Z,37.20
2023-02-09T18:05:55.938Z,31.45
2023-02-09T18:08:23.026Z,32.33
2023-02-09T18:10:49.943Z,37.10
2023-02-09T18:13:19.243Z,34.33
2023-02-09T18:15:48.992Z,32.15
2023-02-09T18:18:15.829Z,39.42
2023-02-09T18:20:42.792Z,37.45
2023-02-09T18:23:14.264Z,31.00
2023-02-09T18:25:41.509Z,28.92
2023-02-09T18:28:08.334Z,32.45
2023-02-09T18:30:39.403Z,32.92
2023-02-09T18:33:07.766Z,30.63
2023-02-09T18:35:38.415Z,34.10
2023-02-09T18:38:07.180Z,32.63
2023-02-09T18:40:34.270Z,33.08
2023-02-09T18:43:05.452Z,30.83
2023-02-09T18:45:32.998Z,36.25
2023-02-09T18:48:00.008Z,32.42
2023-02-09T18:50:29.448Z,31.05
2023-02-09T18:52:58.458Z,32.33
2023-02-09T18:55:28.177Z,29.08
2023-02-09T18:57:55.918Z,30.75
2023-02-09T19:00:23.431Z,30.27
2023-02-09T19:02:50.697Z,35.40
2023-02-09T19:05:19.091Z,36.70
2023-02-09T19:07:47.604Z,35.97
2023-02-09T19:10:18.068Z,35.15
2023-02-09T19:12:46.010Z,46.78
2023-02-09T19:15:14.125Z,44.15
2023-02-09T19:17:41.761Z,41.97
2023-02-09T19:20:12.985Z,49.50
2023-02-09T19:22:39.677Z,38.40
2023-02-09T19:25:06.960Z,38.88
2023-02-09T19:27:37.749Z,43.38
2023-02-09T19:30:05.036Z,38.60
2023-02-09T19:32:31.673Z,38.58
2023-02-09T19:34:58.419Z,42.60
2023-02-09T19:37:25.145Z,44.47
2023-02-09T19:40:04.172Z,41.78
2023-02-09T19:42:31.896Z,40.30
2023-02-09T19:44:58.775Z,37.80
2023-02-09T19:47:28.386Z,39.70
2023-02-09T19:49:56.426Z,37.30
2023-02-09T19:52:23.664Z,40.20
2023-02-09T19:54:50.842Z,42.65
2023-02-09T19:57:18.948Z,43.92
2023-02-09T19:59:45.674Z,43.58
2023-02-09T20:02:13.809Z,42.45
2023-02-09T20:04:42.831Z,38.03
2023-02-09T20:07:10.324Z,37.80
2023-02-09T20:09:37.698Z,40.05
2023-02-09T20:12:04.671Z,38.95
2023-02-09T20:14:33.469Z,42.95
2023-02-09T20:17:00.469Z,41.45
2023-02-09T20:19:27.275Z,43.03
2023-02-09T20:21:53.892Z,43.78
2023-02-09T20:24:20.619Z,42.75
2023-02-09T20:26:47.302Z,43.63
2023-02-09T20:29:14.113Z,41.40
2023-02-09T20:31:42.003Z,44.28
2023-02-09T20:34:13.316Z,40.72
2023-02-09T20:36:41.417Z,41.25
2023-02-09T20:39:16.213Z,42.65
2023-02-09T20:42:05.466Z,42.65
2023-02-09T20:44:51.882Z,40.55
2023-02-09T20:47:19.210Z,37.22
2023-02-09T20:49:45.993Z,41.92
2023-02-09T20:52:13.144Z,47.50
2023-02-09T20:54:40.177Z,38.28
2023-02-09T20:57:07.154Z,40.38
2023-02-09T20:59:34.890Z,49.40
2023-02-09T21:02:01.810Z,45.55
2023-02-09T21:04:30.412Z,46.92
2023-02-09T21:06:58.234Z,51.13
2023-02-09T21:09:28.574Z,53.38
2023-02-09T21:11:56.355Z,47.67
2023-02-09T21:14:32.328Z,47.30
2023-02-09T21:16:59.568Z,48.70
2023-02-09T21:19:26.383Z,47.67
2023-02-09T21:21:53.301Z,54.42
2023-02-09T21:24:20.325Z,45.08
2023-02-09T21:26:47.219Z,42.50
2023-02-09T21:29:14.819Z,44.38
2023-02-09T21:31:41.618Z,44.13
2023-02-09T21:34:08.401Z,42.92
2023-02-09T21:36:35.847Z,47.53
2023-02-09T21:39:03.460Z,44.72
2023-02-09T21:41:49.250Z,42.85
2023-02-09T21:44:16.005Z,44.67
2023-02-09T21:46:42.849Z,42.28
2023-02-09T21:49:11.684Z,42.67
2023-02-09T21:51:38.514Z,43.35
2023-02-09T21:54:07.131Z,42.08
2023-02-09T21:56:33.811Z,42.17
2023-02-09T21:59:00.419Z,41.58
2023-02-09T22:01:27.171Z,41.88
2023-02-09T22:03:57.417Z,41.90
2023-02-09T22:06:25.404Z,42.53
2023-02-09T22:08:52.766Z,39.65
2023-02-09T22:11:19.514Z,43.40
2023-02-09T22:13:46.125Z,38.50
2023-02-09T22:16:18.596Z,39.92
2023-02-09T22:18:45.459Z,37.83
2023-02-09T22:21:12.222Z,38.60
2023-02-09T22:23:38.920Z,40.70
2023-02-09T22:26:06.662Z,50.38
2023-02-09T22:28:36.403Z,39.08
2023-02-09T22:31:08.369Z,41.22
2023-02-09T22:33:35.628Z,42.40
2023-02-09T22:36:12.511Z,40.75
2023-02-09T22:38:39.373Z,41.75
2023-02-09T22:41:21.663Z,44.70
2023-02-09T22:43:59.973Z,45.30
2023-02-09T22:46:38.186Z,44.78
2023-02-09T22:49:08.195Z,37.65
2023-02-09T22:51:35.731Z,40.03
2023-02-09T22:54:03.439Z,38.05
2023-02-09T22:56:31.030Z,39.58
2023-02-09T22:58:58.948Z,39.22
2023-02-09T23:01:26.127Z,41.70
2023-02-09T23:03:53.187Z,38.88
2023-02-09T23:06:23.538Z,42.67
2023-02-09T23:08:56.935Z,42.10
2023-02-09T23:11:24.419Z,40.40
2023-02-09T23:14:03.795Z,43.95
2023-02-09T23:16:35.095Z,43.95
2023-02-09T23:19:07.556Z,42.28
2023-02-09T23:21:37.293Z,47.90
2023-02-09T23:24:04.608Z,43.65
2023-02-09T23:26:31.563Z,39.95
2023-02-09T23:29:00.455Z,42.67
2023-02-09T23:31:27.999Z,41.28
2023-02-09T23:33:55.168Z,44.00
2023-02-09T23:36:24.002Z,44.90
2023-02-09T23:38:55.759Z,41.25
2023-02-09T23:41:23.123Z,45.00
2023-02-09T23:43:50.664Z,44.05
2023-02-09T23:46:19.778Z,44.25
2023-02-09T23:48:46.557Z,46.63
2023-02-09T23:51:18.937Z,40.30
2023-02-09T23:53:46.603Z,40.97
2023-02-09T23:56:14.188Z,43.22
2023-02-09T23:58:44.194Z,44.83
